Thursday, February 22, 2018, 12:10 PM EST
Back to Local

KMIV, Millville Municipal Airport

Location: Millville, NJ, United States Lat: 39.367
Local Time: 12:10 PM EST (17:10 GMT) Lon: -75.083
Time Zone: US/Eastern Elev: 85 ft

Show me the last for .
Show Decoded

2018-02-22 11:54 METAR KMIV 221654Z AUTO 08014G18KT 10SM OVC019 10/05 A3051 RMK AO2 SLP331
                 T01000050 =
2018-02-22 10:54 METAR KMIV 221554Z AUTO 07015KT 10SM OVC021 11/05 A3051 RMK AO2 SLP331 T01060050
                 =
2018-02-22 09:54 METAR KMIV 221454Z AUTO 08013KT 10SM OVC029 12/06 A3052 RMK AO2 SLP335 T01170056
                 53020 =
2018-02-22 09:26 METAR KMIV 221426Z AUTO 09017G24KT 10SM BKN027 OVC034 12/06 A3051 RMK AO2
                 T01220056 =
2018-02-22 08:54 METAR KMIV 221354Z AUTO 07009KT 10SM OVC033 13/03 A3050 RMK AO2 SLP328 T01330033
                 =
2018-02-22 07:54 METAR KMIV 221254Z AUTO 06008KT 10SM OVC031 13/06 A3047 RMK AO2 SLP318 T01280061
                 =
2018-02-22 07:38 METAR KMIV 221238Z AUTO 05006KT 10SM OVC030 13/06 A3047 RMK AO2 T01280061 =
2018-02-22 06:54 METAR KMIV 221154Z AUTO 03008KT 10SM OVC028 13/06 A3047 RMK AO2 SLP315 T01330061
                 10167 20128 51013 =
2018-02-22 05:54 METAR KMIV 221054Z AUTO 04007KT 10SM OVC024 13/06 A3045 RMK AO2 SLP311 T01330061
                 =
2018-02-22 04:54 METAR KMIV 220954Z AUTO 04007KT 10SM OVC024 14/07 A3044 RMK AO2 SLP308 T01390072
                 =
2018-02-22 03:54 METAR KMIV 220854Z AUTO 02007KT 10SM OVC023 14/08 A3043 RMK AO2 SLP302 T01440083
                 50012 =
2018-02-22 02:54 METAR KMIV 220754Z AUTO 02008KT 10SM OVC025 15/09 A3044 RMK AO2 SLP305 T01500089
                 =
2018-02-22 01:54 METAR KMIV 220654Z AUTO 01008KT 10SM OVC020 15/10 A3043 RMK AO2 SLP302 T01500100
                 =
2018-02-22 01:34 METAR KMIV 220634Z AUTO 36008KT 10SM BKN018 15/10 A3042 RMK AO2 T01500100 =
2018-02-22 00:54 METAR KMIV 220554Z AUTO 02013KT 10SM CLR 17/13 A3039 RMK AO2 SLP290 T01670128
                 10200 20156 53019 =
2018-02-21 23:54 METAR KMIV 220454Z AUTO 23003KT 10SM BKN085 17/15 A3037 RMK AO2 SLP282 T01720150
                 402440128 =
2018-02-21 22:54 METAR KMIV 220354Z AUTO 27007KT 10SM BKN100 18/15 A3035 RMK AO2 SLP277 T01830150
                 =
2018-02-21 21:54 METAR KMIV 220254Z AUTO 23004KT 10SM FEW080 18/14 A3033 RMK AO2 SLP271 T01780144
                 51008 =
2018-02-21 20:54 METAR KMIV 220154Z AUTO 22003KT 10SM CLR 18/14 A3033 RMK AO2 SLP269 T01780144 =
2018-02-21 19:54 METAR KMIV 220054Z AUTO VRB04KT 10SM CLR 19/15 A3031 RMK AO2 SLP264 T01940150 =
2018-02-21 18:54 METAR KMIV 212354Z AUTO VRB04KT 10SM CLR 20/15 A3031 RMK AO2 SLP262 T02000150
                 10244 20200 53013 =
2018-02-21 17:54 METAR KMIV 212254Z AUTO 22007KT 170V250 10SM CLR 21/16 A3029 RMK AO2 SLP255
                 T02110156 =
2018-02-21 16:54 METAR KMIV 212154Z AUTO 22007KT 10SM SCT110 23/16 A3027 RMK AO2 SLP250 T02330156
                 =
2018-02-21 15:54 METAR KMIV 212054Z AUTO 25008G17KT 10SM CLR 24/16 A3027 RMK AO2 SLP249 T02440161
                 56012 =
2018-02-21 14:54 METAR KMIV 211954Z AUTO 23007G17KT 10SM FEW095 24/16 A3027 RMK AO2 SLP250
                 T02390161 =
2018-02-21 13:54 METAR KMIV 211854Z AUTO 23010G15KT 180V260 10SM BKN095 23/16 A3028 RMK AO2
                 SLP253 T02330161 =
2018-02-21 12:54 METAR KMIV 211754Z AUTO 24013G24KT 10SM FEW021 23/17 A3031 RMK AO2 SLP261
                 T02280167 10228 20133 58017 =

Support USWX by starting your Amazon purchase here.